Strona główna
METAR-TAF:

METAR-TAF

Lotnisko :

First Flight Airport

Kill Devil Hills, Karolina Północna, Stany Zjednoczone

Szerokość geograficzna: 36-01N, Długość geograficzna: 075-40W, wysokość: 4 m

Aktualna obserwacja pogody

Raport powstał 18 minut temu, godzina 22:35 UTC
Wiatr 4 kt od południowo-południowy wschód
Temperatura 25°C
Wilgotność 79%
Ciśnienie 1012 hPa
Widzialność: 16.1 km
Rozproszone chmury na wysokości 3100 ft

METAR: KFFA 302235Z AUTO 15004KT 10SM SCT031 25/21 A2989 RMK AO2 T02520212

czas: 18:53 (22:53 UTC)


TAF: brakujący

Obserwacja i prognoza pogody dla ponad 4000 lotnisk (raport METAR i TAF).

Dostępne stacje oznaczono żółtymi i czerwonymi punktami na mapie.

Najedź kursorem aby zobaczyć nazwę stacji.

Kliknij aby zobaczyć obserwacje i prognozy pogody.

Aby zmienić mapę: kliknij na zielony przycisk z czarnym krzyżykiem, aby powiększyć; na zielony przycisk z myślnikiem, aby pomniejszyć; na zielone strzałki, aby przejść do map sąsiednich.


METAR-TAF: